createdAt,value
2023-04-18T00:00:29.206Z,11.38
2023-04-18T00:01:01.836Z,10.90
2023-04-18T00:01:33.699Z,9.50
2023-04-18T00:02:06.949Z,10.60
2023-04-18T00:02:39.791Z,10.38
2023-04-18T00:03:15.594Z,11.05
2023-04-18T00:03:51.094Z,9.95
2023-04-18T00:04:23.356Z,10.93
2023-04-18T00:04:56.392Z,9.93
2023-04-18T00:05:30.273Z,10.73
2023-04-18T00:06:02.198Z,10.82
2023-04-18T00:06:35.833Z,10.35
2023-04-18T00:07:08.712Z,10.55
2023-04-18T00:07:41.163Z,10.95
2023-04-18T00:08:13.522Z,10.88
2023-04-18T00:08:46.469Z,10.48
2023-04-18T00:09:18.330Z,10.00
2023-04-18T00:09:50.301Z,9.95
2023-04-18T00:10:23.211Z,10.77
2023-04-18T00:10:55.143Z,10.20
2023-04-18T00:11:27.313Z,10.68
2023-04-18T00:12:01.484Z,11.00
2023-04-18T00:12:34.180Z,10.55
2023-04-18T00:13:06.029Z,10.40
2023-04-18T00:13:39.312Z,11.93
2023-04-18T00:14:12.382Z,10.82
2023-04-18T00:14:44.451Z,11.00
2023-04-18T00:15:16.257Z,11.35
2023-04-18T00:15:49.004Z,10.90
2023-04-18T00:16:20.879Z,11.02
2023-04-18T00:16:54.094Z,10.30
2023-04-18T00:17:28.373Z,10.88
2023-04-18T00:18:00.692Z,12.40
2023-04-18T00:18:32.927Z,11.32
2023-04-18T00:19:08.632Z,10.73
2023-04-18T00:19:43.086Z,10.05
2023-04-18T00:20:15.888Z,10.90
2023-04-18T00:20:47.749Z,11.63
2023-04-18T00:21:19.653Z,11.10
2023-04-18T00:21:53.806Z,10.55
2023-04-18T00:22:25.805Z,11.80
2023-04-18T00:22:57.848Z,10.73
2023-04-18T00:23:30.239Z,11.55
2023-04-18T00:24:03.073Z,10.82
2023-04-18T00:24:34.946Z,10.02
2023-04-18T00:25:07.605Z,11.45
2023-04-18T00:25:40.427Z,10.15
2023-04-18T00:26:12.698Z,10.70
2023-04-18T00:26:44.526Z,12.27
2023-04-18T00:27:17.366Z,10.93
2023-04-18T00:27:49.274Z,11.77
2023-04-18T00:28:21.149Z,11.13
2023-04-18T00:28:54.018Z,12.25
2023-04-18T00:29:25.826Z,11.98
2023-04-18T00:29:57.632Z,10.63
2023-04-18T00:30:30.459Z,11.07
2023-04-18T00:31:02.264Z,11.45
2023-04-18T00:31:34.060Z,11.95
2023-04-18T00:32:07.219Z,11.75
2023-04-18T00:32:39.115Z,11.32
2023-04-18T00:33:10.984Z,11.05
2023-04-18T00:33:43.786Z,11.40
2023-04-18T00:34:16.949Z,12.57
2023-04-18T00:34:48.731Z,11.10
2023-04-18T00:35:21.525Z,11.57
2023-04-18T00:35:54.108Z,12.07
2023-04-18T00:36:26.984Z,10.95
2023-04-18T00:36:59.798Z,11.93
2023-04-18T00:37:31.644Z,11.40
2023-04-18T00:38:03.468Z,10.20
2023-04-18T00:38:36.538Z,12.70
2023-04-18T00:39:08.433Z,11.38
2023-04-18T00:39:40.271Z,12.48
2023-04-18T00:40:13.321Z,11.30
2023-04-18T00:40:45.091Z,11.40
2023-04-18T00:41:16.907Z,10.68
2023-04-18T00:41:48.716Z,11.27
2023-04-18T00:42:21.828Z,11.18
2023-04-18T00:42:53.954Z,11.95
2023-04-18T00:43:25.773Z,11.85
2023-04-18T00:43:58.662Z,11.07
2023-04-18T00:44:30.887Z,11.60
2023-04-18T00:45:02.822Z,11.57
2023-04-18T00:45:34.649Z,11.98
2023-04-18T00:46:07.672Z,11.18
2023-04-18T00:46:39.567Z,12.25
2023-04-18T00:47:11.520Z,13.63
2023-04-18T00:47:44.444Z,12.38
2023-04-18T00:48:17.114Z,11.10
2023-04-18T00:48:49.603Z,11.70
2023-04-18T00:49:23.925Z,11.88
2023-04-18T00:49:55.997Z,11.82
2023-04-18T00:50:28.877Z,11.98
2023-04-18T00:51:00.978Z,11.85
2023-04-18T00:51:34.425Z,12.23
2023-04-18T00:52:07.369Z,11.98
2023-04-18T00:52:39.332Z,11.98
2023-04-18T00:53:11.315Z,11.68
2023-04-18T00:53:45.947Z,12.30
2023-04-18T00:54:18.719Z,11.25
2023-04-18T00:54:50.994Z,11.15
2023-04-18T00:55:23.866Z,11.68
2023-04-18T00:55:56.838Z,11.95
2023-04-18T00:56:29.306Z,12.32
2023-04-18T00:57:02.133Z,12.65
2023-04-18T00:57:35.936Z,11.93
2023-04-18T00:58:07.930Z,11.10
2023-04-18T00:58:40.517Z,11.82
2023-04-18T00:59:14.158Z,11.23
2023-04-18T00:59:46.649Z,11.00
2023-04-18T01:00:18.795Z,12.10
2023-04-18T01:00:52.006Z,12.60
2023-04-18T01:01:24.018Z,12.05
2023-04-18T01:01:55.956Z,11.77
2023-04-18T01:02:30.401Z,12.75
2023-04-18T01:03:02.691Z,11.60
2023-04-18T01:03:35.186Z,13.00
2023-04-18T01:04:08.875Z,11.23
2023-04-18T01:04:44.016Z,12.70
2023-04-18T01:05:15.986Z,11.05
2023-04-18T01:05:48.895Z,11.38
2023-04-18T01:06:21.390Z,12.90
2023-04-18T01:06:53.367Z,12.95
2023-04-18T01:07:26.440Z,12.15
2023-04-18T01:08:00.934Z,11.60
2023-04-18T01:08:33.074Z,12.02
2023-04-18T01:09:06.509Z,10.23
2023-04-18T01:09:38.414Z,11.98
2023-04-18T01:10:11.180Z,12.45
2023-04-18T01:10:44.041Z,11.85
2023-04-18T01:11:15.903Z,11.90
2023-04-18T01:11:47.720Z,12.73
2023-04-18T01:12:20.513Z,11.90
2023-04-18T01:13:11.049Z,12.80
2023-04-18T01:13:43.870Z,12.68
2023-04-18T01:14:15.840Z,12.73
2023-04-18T01:14:47.621Z,12.15
2023-04-18T01:15:20.389Z,12.00
2023-04-18T01:15:53.933Z,12.88
2023-04-18T01:16:27.043Z,12.18
2023-04-18T01:16:59.845Z,12.02
2023-04-18T01:17:34.477Z,13.13
2023-04-18T01:18:07.680Z,11.57
2023-04-18T01:18:40.829Z,13.77
2023-04-18T01:19:12.986Z,12.25
2023-04-18T01:19:46.687Z,12.75
2023-04-18T01:20:23.161Z,12.18
2023-04-18T01:20:56.892Z,13.30
2023-04-18T01:21:30.980Z,12.02
2023-04-18T01:22:03.738Z,13.23
2023-04-18T01:22:35.767Z,12.30
2023-04-18T01:23:07.793Z,11.00
2023-04-18T01:23:40.591Z,12.65
2023-04-18T01:24:15.615Z,13.00
2023-04-18T01:24:47.826Z,12.57
2023-04-18T01:25:19.704Z,11.60
2023-04-18T01:25:52.471Z,12.95
2023-04-18T01:26:24.371Z,12.77
2023-04-18T01:26:57.142Z,12.52
2023-04-18T01:27:29.154Z,12.85
2023-04-18T01:28:02.468Z,13.40
2023-04-18T01:28:36.837Z,11.73
2023-04-18T01:29:09.628Z,12.20
2023-04-18T01:29:41.472Z,12.82
2023-04-18T01:30:13.727Z,12.25
2023-04-18T01:30:46.648Z,12.48
2023-04-18T01:31:18.518Z,12.35
2023-04-18T01:31:50.591Z,12.32
2023-04-18T01:32:23.504Z,12.23
2023-04-18T01:32:55.491Z,13.07
2023-04-18T01:33:27.302Z,13.52
2023-04-18T01:33:59.071Z,11.52
2023-04-18T01:34:31.846Z,12.38
2023-04-18T01:35:04.323Z,13.20
2023-04-18T01:35:36.216Z,14.82
2023-04-18T01:36:09.173Z,14.68
2023-04-18T01:36:40.966Z,13.73
2023-04-18T01:37:12.788Z,14.02
2023-04-18T01:37:45.804Z,12.45
2023-04-18T01:38:17.601Z,13.82
2023-04-18T01:38:49.447Z,12.75
2023-04-18T01:39:23.698Z,13.50
2023-04-18T01:39:55.467Z,13.93
2023-04-18T01:40:27.443Z,13.32
2023-04-18T01:41:00.587Z,12.75
2023-04-18T01:41:32.840Z,14.10
2023-04-18T01:42:05.000Z,13.93
2023-04-18T01:42:37.769Z,14.20
2023-04-18T01:43:09.633Z,13.65
2023-04-18T01:43:41.415Z,14.48
2023-04-18T01:44:13.439Z,15.15
2023-04-18T01:44:46.382Z,13.73
2023-04-18T01:45:20.042Z,14.77
2023-04-18T01:45:51.833Z,13.75
2023-04-18T01:46:24.824Z,13.93
2023-04-18T01:46:56.714Z,14.45
2023-04-18T01:47:28.707Z,14.98
2023-04-18T01:48:01.573Z,14.02
2023-04-18T01:48:33.410Z,14.40
2023-04-18T01:49:05.728Z,12.90
2023-04-18T01:49:39.459Z,13.75
2023-04-18T01:50:11.764Z,15.07
2023-04-18T01:50:43.577Z,14.48
2023-04-18T01:51:16.395Z,13.93
2023-04-18T01:51:48.210Z,12.80
2023-04-18T01:52:20.055Z,14.05
2023-04-18T01:52:52.863Z,14.77
2023-04-18T01:53:25.488Z,15.02
2023-04-18T01:53:57.336Z,13.60
2023-04-18T01:54:31.457Z,14.70
2023-04-18T01:55:03.942Z,15.02
2023-04-18T01:55:35.819Z,14.38
2023-04-18T01:56:07.758Z,12.80
2023-04-18T01:56:40.506Z,15.98
2023-04-18T01:57:12.335Z,13.85
2023-04-18T01:57:44.416Z,14.35
2023-04-18T01:58:18.482Z,14.30
2023-04-18T01:58:51.261Z,13.85
2023-04-18T01:59:23.082Z,14.13
2023-04-18T01:59:54.994Z,14.43
2023-04-18T02:00:27.069Z,14.70
2023-04-18T02:00:59.917Z,14.15
2023-04-18T02:01:31.738Z,14.02
2023-04-18T02:02:03.750Z,12.85
2023-04-18T02:02:36.792Z,14.40
2023-04-18T02:03:08.742Z,13.25
2023-04-18T02:03:40.999Z,14.57
2023-04-18T02:04:14.089Z,14.20
2023-04-18T02:04:46.322Z,13.68
2023-04-18T02:05:18.215Z,13.55
2023-04-18T02:05:51.062Z,15.68
2023-04-18T02:06:22.836Z,15.18
2023-04-18T02:06:54.698Z,14.73
2023-04-18T02:07:27.643Z,13.68
2023-04-18T02:07:59.460Z,14.75
2023-04-18T02:08:32.965Z,15.57
2023-04-18T02:09:05.769Z,14.20
2023-04-18T02:09:38.897Z,15.38
2023-04-18T02:10:11.292Z,15.88
2023-04-18T02:10:44.224Z,14.32
2023-04-18T02:11:16.052Z,14.55
2023-04-18T02:11:47.863Z,14.73
2023-04-18T02:12:20.912Z,14.30
2023-04-18T02:12:52.770Z,13.57
2023-04-18T02:13:24.583Z,14.00
2023-04-18T02:13:59.409Z,14.18
2023-04-18T02:14:33.401Z,14.80
2023-04-18T02:15:06.569Z,14.82
2023-04-18T02:15:39.441Z,14.82
2023-04-18T02:16:12.537Z,15.02
2023-04-18T02:16:44.468Z,16.30
2023-04-18T02:17:17.280Z,14.27
2023-04-18T02:17:50.410Z,14.32
2023-04-18T02:18:24.672Z,15.73
2023-04-18T02:18:57.759Z,14.23
2023-04-18T02:19:30.024Z,15.23
2023-04-18T02:20:01.926Z,15.18
2023-04-18T02:20:34.814Z,14.30
2023-04-18T02:21:07.094Z,14.60
2023-04-18T02:21:38.880Z,16.00
2023-04-18T02:22:11.643Z,14.65
2023-04-18T02:22:43.965Z,14.75
2023-04-18T02:23:15.727Z,15.02
2023-04-18T02:23:48.476Z,13.52
2023-04-18T02:24:20.433Z,13.70
2023-04-18T02:24:53.564Z,15.00
2023-04-18T02:25:27.523Z,15.40
2023-04-18T02:25:59.419Z,14.38
2023-04-18T02:26:31.244Z,15.23
2023-04-18T02:27:04.232Z,14.88
2023-04-18T02:27:36.127Z,14.48
2023-04-18T02:28:07.981Z,15.45
2023-04-18T02:28:40.742Z,16.48
2023-04-18T02:29:12.573Z,16.63
2023-04-18T02:29:44.397Z,14.80
2023-04-18T02:30:17.283Z,15.95
2023-04-18T02:30:49.184Z,15.50
2023-04-18T02:31:21.010Z,14.75
2023-04-18T02:31:53.839Z,14.93
2023-04-18T02:32:25.933Z,14.85
2023-04-18T02:32:57.898Z,15.25
2023-04-18T02:33:30.791Z,14.30
2023-04-18T02:34:02.602Z,14.18
2023-04-18T02:34:34.467Z,14.57
2023-04-18T02:35:07.813Z,14.95
2023-04-18T02:35:40.560Z,15.00
2023-04-18T02:36:12.759Z,16.67
2023-04-18T02:36:45.747Z,15.68
2023-04-18T02:37:17.538Z,16.35
2023-04-18T02:37:49.642Z,15.95
2023-04-18T02:38:22.437Z,14.70
2023-04-18T02:38:54.918Z,15.38
2023-04-18T02:39:26.757Z,16.65
2023-04-18T02:40:00.885Z,16.23
2023-04-18T02:40:32.737Z,16.63
2023-04-18T02:41:05.881Z,16.80
2023-04-18T02:41:39.197Z,16.40
2023-04-18T02:42:10.988Z,15.02
2023-04-18T02:42:44.016Z,15.35
2023-04-18T02:43:15.943Z,16.55
2023-04-18T02:43:47.866Z,16.35
2023-04-18T02:44:20.699Z,15.95
2023-04-18T02:44:52.707Z,16.50
2023-04-18T02:45:24.529Z,15.90
2023-04-18T02:45:56.494Z,17.05
2023-04-18T02:46:29.516Z,15.93
2023-04-18T02:47:01.531Z,17.85
2023-04-18T02:47:43.514Z,17.33
2023-04-18T02:48:20.427Z,16.77
2023-04-18T02:48:52.311Z,16.15
2023-04-18T02:49:24.203Z,16.25
2023-04-18T02:49:57.032Z,18.40
2023-04-18T02:50:29.414Z,17.45
2023-04-18T02:51:03.595Z,16.75
2023-04-18T02:51:36.580Z,17.08
2023-04-18T02:52:08.515Z,16.92
2023-04-18T02:52:40.505Z,17.52
2023-04-18T02:53:13.318Z,16.75
2023-04-18T02:53:45.278Z,17.40
2023-04-18T02:54:18.156Z,16.88
2023-04-18T02:54:50.033Z,17.60
2023-04-18T02:55:24.337Z,18.00
2023-04-18T02:55:57.270Z,17.98
2023-04-18T02:56:29.124Z,17.27
2023-04-18T02:57:01.265Z,18.75
2023-04-18T02:57:34.080Z,17.88
2023-04-18T02:58:05.961Z,17.85
2023-04-18T02:58:37.817Z,19.67
2023-04-18T02:59:09.628Z,18.55
2023-04-18T02:59:42.464Z,19.42
2023-04-18T03:00:14.846Z,19.00
2023-04-18T03:00:46.656Z,17.75
2023-04-18T03:01:19.482Z,18.42
2023-04-18T03:01:51.311Z,17.58
2023-04-18T03:02:23.296Z,19.02
2023-04-18T03:02:56.358Z,19.30
2023-04-18T03:03:28.309Z,18.85
2023-04-18T03:04:00.195Z,19.75
2023-04-18T03:04:33.103Z,18.58
2023-04-18T03:05:06.674Z,17.40
2023-04-18T03:05:39.711Z,19.23
2023-04-18T03:06:12.468Z,18.80
2023-04-18T03:06:44.268Z,18.77
2023-04-18T03:07:16.077Z,18.90
2023-04-18T03:07:48.874Z,20.52
2023-04-18T03:08:20.698Z,19.30
2023-04-18T03:08:52.477Z,20.55
2023-04-18T03:09:25.353Z,19.50
2023-04-18T03:09:57.186Z,21.67
2023-04-18T03:10:31.097Z,20.58
2023-04-18T03:11:03.849Z,19.83
2023-04-18T03:11:35.672Z,20.50
2023-04-18T03:12:07.547Z,19.40
2023-04-18T03:12:40.336Z,18.40
2023-04-18T03:13:12.150Z,18.55
2023-04-18T03:13:43.928Z,19.92
2023-04-18T03:14:16.736Z,20.38
2023-04-18T03:14:48.514Z,19.98
2023-04-18T03:15:20.505Z,20.92
2023-04-18T03:15:52.689Z,21.70
2023-04-18T03:16:25.556Z,20.00
2023-04-18T03:16:57.517Z,19.77
2023-04-18T03:17:29.448Z,20.27
2023-04-18T03:18:02.283Z,18.63
2023-04-18T03:18:34.171Z,19.55
2023-04-18T03:19:05.991Z,21.77
2023-04-18T03:19:38.742Z,21.33
2023-04-18T03:20:12.114Z,19.98
2023-04-18T03:20:43.975Z,21.58
2023-04-18T03:21:16.783Z,22.00
2023-04-18T03:21:48.547Z,19.80
2023-04-18T03:22:20.469Z,21.48
2023-04-18T03:22:53.214Z,20.65
2023-04-18T03:23:25.021Z,19.77
2023-04-18T03:23:56.850Z,22.30
2023-04-18T03:24:29.655Z,21.08
2023-04-18T03:25:01.463Z,19.83
2023-04-18T03:25:34.655Z,20.35
2023-04-18T03:26:08.836Z,20.58
2023-04-18T03:26:40.686Z,22.50
2023-04-18T03:27:13.306Z,22.05
2023-04-18T03:27:46.049Z,21.17
2023-04-18T03:28:17.904Z,20.70
2023-04-18T03:28:49.853Z,19.92
2023-04-18T03:29:22.786Z,21.00
2023-04-18T03:29:54.691Z,21.60
2023-04-18T03:30:26.601Z,22.75
2023-04-18T03:31:00.400Z,20.77
2023-04-18T03:31:33.405Z,20.00
2023-04-18T03:32:05.665Z,20.90
2023-04-18T03:32:38.511Z,20.50
2023-04-18T03:33:10.462Z,22.25
2023-04-18T03:33:44.073Z,23.13
2023-04-18T03:34:16.879Z,21.90
2023-04-18T03:34:49.159Z,21.98
2023-04-18T03:35:21.070Z,21.50
2023-04-18T03:35:53.877Z,21.75
2023-04-18T03:36:28.595Z,21.30
2023-04-18T03:37:01.094Z,20.83
2023-04-18T03:37:32.957Z,22.25
2023-04-18T03:38:05.734Z,22.85
2023-04-18T03:38:39.592Z,22.83
2023-04-18T03:39:11.496Z,21.98
2023-04-18T03:39:44.455Z,20.65
2023-04-18T03:40:16.357Z,22.70
2023-04-18T03:40:49.632Z,22.40
2023-04-18T03:41:22.611Z,23.67
2023-04-18T03:41:54.517Z,24.05
2023-04-18T03:42:26.398Z,22.35
2023-04-18T03:43:00.663Z,22.83
2023-04-18T03:43:32.606Z,23.48
2023-04-18T03:44:04.819Z,21.33
2023-04-18T03:44:37.654Z,22.65
2023-04-18T03:45:10.508Z,23.83
2023-04-18T03:45:43.982Z,21.40
2023-04-18T03:46:16.902Z,21.45
2023-04-18T03:46:48.822Z,22.58
2023-04-18T03:47:21.135Z,20.30
2023-04-18T03:47:54.096Z,21.75
2023-04-18T03:48:25.958Z,23.08
2023-04-18T03:48:57.760Z,22.17
2023-04-18T03:49:30.548Z,21.83
2023-04-18T03:50:02.360Z,21.55
2023-04-18T03:50:34.215Z,23.30
2023-04-18T03:51:08.021Z,21.75
2023-04-18T03:51:47.206Z,21.45
2023-04-18T03:52:20.091Z,21.73
2023-04-18T03:52:53.297Z,21.30
2023-04-18T03:53:25.101Z,23.85
2023-04-18T03:53:56.961Z,22.58
2023-04-18T03:54:29.730Z,22.23
2023-04-18T03:55:01.589Z,22.42
2023-04-18T03:55:33.834Z,22.75
2023-04-18T03:56:08.141Z,25.15
2023-04-18T03:56:40.898Z,22.70
2023-04-18T03:57:12.743Z,22.48
2023-04-18T03:57:44.527Z,23.45
2023-04-18T03:58:17.967Z,22.40
2023-04-18T03:58:49.822Z,23.52
2023-04-18T03:59:21.708Z,22.00
2023-04-18T03:59:54.802Z,21.48
2023-04-18T04:00:26.771Z,23.33
2023-04-18T04:00:58.611Z,22.98
2023-04-18T04:01:31.526Z,24.02
2023-04-18T04:02:03.537Z,21.77
2023-04-18T04:02:35.523Z,23.30
2023-04-18T04:03:08.622Z,22.60
2023-04-18T04:03:40.658Z,22.85
2023-04-18T04:04:15.207Z,20.92
2023-04-18T04:04:48.351Z,23.60
2023-04-18T04:05:20.196Z,22.17
2023-04-18T04:05:52.021Z,23.00
2023-04-18T04:06:24.978Z,22.70
2023-04-18T04:06:57.974Z,22.92
2023-04-18T04:07:29.759Z,23.08
2023-04-18T04:08:02.524Z,21.77
2023-04-18T04:08:34.516Z,22.42
2023-04-18T04:09:06.323Z,22.65
2023-04-18T04:09:38.225Z,22.77
2023-04-18T04:10:11.583Z,23.35
2023-04-18T04:10:43.494Z,22.10
2023-04-18T04:11:17.460Z,21.52
2023-04-18T04:11:50.591Z,24.45
2023-04-18T04:12:22.497Z,22.55
2023-04-18T04:12:54.267Z,22.52
2023-04-18T04:13:27.123Z,22.58
2023-04-18T04:13:58.913Z,21.00
2023-04-18T04:14:30.736Z,22.83
2023-04-18T04:15:03.567Z,22.00
2023-04-18T04:15:37.335Z,22.65
2023-04-18T04:16:09.279Z,23.35
2023-04-18T04:16:42.145Z,22.95
2023-04-18T04:17:14.062Z,22.65
2023-04-18T04:17:46.011Z,23.65
2023-04-18T04:18:18.895Z,24.80
2023-04-18T04:18:50.685Z,22.30
2023-04-18T04:19:22.489Z,22.67
2023-04-18T04:19:55.350Z,23.83
2023-04-18T04:20:27.693Z,22.55
2023-04-18T04:20:59.942Z,23.33
2023-04-18T04:21:32.691Z,24.48
2023-04-18T04:22:04.482Z,21.90
2023-04-18T04:22:37.332Z,23.73
2023-04-18T04:23:10.072Z,21.85
2023-04-18T04:23:42.364Z,24.13
2023-04-18T04:24:14.346Z,22.05
2023-04-18T04:24:47.491Z,23.92
2023-04-18T04:25:19.995Z,22.63
2023-04-18T04:25:52.937Z,23.17
2023-04-18T04:26:27.561Z,22.77
2023-04-18T04:26:59.835Z,24.42
2023-04-18T04:27:33.947Z,22.77
2023-04-18T04:28:08.066Z,23.08
2023-04-18T04:28:40.014Z,23.77
2023-04-18T04:29:13.698Z,23.05
2023-04-18T04:29:46.498Z,22.90
2023-04-18T04:30:18.296Z,23.10
2023-04-18T04:30:50.730Z,22.33
2023-04-18T04:31:23.558Z,25.23
2023-04-18T04:31:55.580Z,21.90
2023-04-18T04:32:28.327Z,24.33
2023-04-18T04:33:01.603Z,22.67
2023-04-18T04:33:33.749Z,23.95
2023-04-18T04:34:06.168Z,24.00
2023-04-18T04:34:41.139Z,22.40
2023-04-18T04:35:12.932Z,23.00
2023-04-18T04:35:44.866Z,23.35
2023-04-18T04:36:18.944Z,24.40
2023-04-18T04:36:51.137Z,22.00
2023-04-18T04:37:23.659Z,23.48
2023-04-18T04:37:56.429Z,23.02
2023-04-18T04:38:30.706Z,21.25
2023-04-18T04:39:04.102Z,23.60
2023-04-18T04:39:36.878Z,24.77
2023-04-18T04:40:10.096Z,22.63
2023-04-18T04:40:42.411Z,23.15
2023-04-18T04:41:15.261Z,22.90
2023-04-18T04:41:48.892Z,23.73
2023-04-18T04:42:20.722Z,24.17
2023-04-18T04:42:54.278Z,22.38
2023-04-18T04:43:28.606Z,22.58
2023-04-18T04:44:01.672Z,25.10
2023-04-18T04:44:35.572Z,23.00
2023-04-18T04:45:09.271Z,23.05
2023-04-18T04:45:41.520Z,22.58
2023-04-18T04:46:15.376Z,24.40
2023-04-18T04:46:47.816Z,24.30
2023-04-18T04:47:19.638Z,22.85
2023-04-18T04:47:52.485Z,24.80
2023-04-18T04:48:24.924Z,22.60
2023-04-18T04:48:56.762Z,23.20
2023-04-18T04:49:29.566Z,23.48
2023-04-18T04:50:01.426Z,22.95
2023-04-18T04:50:34.733Z,23.88
2023-04-18T04:51:07.529Z,23.90
2023-04-18T04:51:40.049Z,21.40
2023-04-18T04:52:11.911Z,22.63
2023-04-18T04:52:44.745Z,22.85
2023-04-18T04:53:16.618Z,23.45
2023-04-18T04:53:48.423Z,23.20
2023-04-18T04:54:21.191Z,23.10
2023-04-18T04:54:53.007Z,21.73
2023-04-18T04:55:24.826Z,22.98
2023-04-18T04:55:58.120Z,23.55
2023-04-18T04:56:29.988Z,22.48
2023-04-18T04:57:04.223Z,23.65
2023-04-18T04:57:37.127Z,22.73
2023-04-18T04:58:08.979Z,22.02
2023-04-18T04:58:40.836Z,21.25
2023-04-18T04:59:14.027Z,22.80
2023-04-18T04:59:45.828Z,21.95
2023-04-18T05:00:20.758Z,22.80
2023-04-18T05:00:53.918Z,21.90
2023-04-18T05:01:25.947Z,23.90
2023-04-18T05:01:57.829Z,23.20
2023-04-18T05:02:30.919Z,23.42
2023-04-18T05:03:03.513Z,21.83
2023-04-18T05:03:36.419Z,22.63
2023-04-18T05:04:09.563Z,21.92
2023-04-18T05:04:41.520Z,23.27
2023-04-18T05:05:13.667Z,22.70
2023-04-18T05:05:46.616Z,23.20
2023-04-18T05:06:20.639Z,22.42
2023-04-18T05:06:52.797Z,23.42
2023-04-18T05:07:25.679Z,24.33
2023-04-18T05:07:57.511Z,24.10
2023-04-18T05:08:29.315Z,23.35
2023-04-18T05:09:02.111Z,24.45
2023-04-18T05:09:33.943Z,23.15
2023-04-18T05:10:07.135Z,24.33
2023-04-18T05:10:39.063Z,22.95
2023-04-18T05:11:10.851Z,22.08
2023-04-18T05:11:43.683Z,24.30
2023-04-18T05:12:16.947Z,23.65
2023-04-18T05:12:48.762Z,23.75
2023-04-18T05:13:21.562Z,23.25
2023-04-18T05:13:53.463Z,22.08
2023-04-18T05:14:26.292Z,25.20
2023-04-18T05:14:58.101Z,24.20
2023-04-18T05:15:30.573Z,23.95
2023-04-18T05:16:03.565Z,22.35
2023-04-18T05:16:35.750Z,23.20
2023-04-18T05:17:08.625Z,23.40
2023-04-18T05:17:40.617Z,24.40
2023-04-18T05:18:14.073Z,22.92
2023-04-18T05:18:46.965Z,23.77
2023-04-18T05:19:18.826Z,23.73
2023-04-18T05:19:51.801Z,23.65
2023-04-18T05:20:23.752Z,22.40
2023-04-18T05:20:55.839Z,23.55
2023-04-18T05:21:28.840Z,23.85
2023-04-18T05:22:00.719Z,23.75
2023-04-18T05:22:32.600Z,24.02
2023-04-18T05:23:05.371Z,22.92
2023-04-18T05:23:37.383Z,26.00
2023-04-18T05:24:09.602Z,22.52
2023-04-18T05:24:42.401Z,23.17
2023-04-18T05:25:14.393Z,21.05
2023-04-18T05:25:46.306Z,24.88
2023-04-18T05:26:19.658Z,22.55
2023-04-18T05:26:51.649Z,24.75
2023-04-18T05:27:25.089Z,23.92
2023-04-18T05:27:57.983Z,22.40
2023-04-18T05:28:29.864Z,24.58
2023-04-18T05:29:01.746Z,23.13
2023-04-18T05:29:34.666Z,22.35
2023-04-18T05:30:07.701Z,23.70
2023-04-18T05:30:40.199Z,22.70
2023-04-18T05:31:13.121Z,21.50
2023-04-18T05:31:44.986Z,21.65
2023-04-18T05:32:16.907Z,22.65
2023-04-18T05:32:49.714Z,22.40
2023-04-18T05:33:21.555Z,21.95
2023-04-18T05:33:54.358Z,24.95
2023-04-18T05:34:26.172Z,22.95
2023-04-18T05:34:57.980Z,23.75
2023-04-18T05:35:31.206Z,23.60
2023-04-18T05:36:03.139Z,24.65
2023-04-18T05:36:36.100Z,21.40
2023-04-18T05:37:07.977Z,21.92
2023-04-18T05:37:39.832Z,21.92
2023-04-18T05:38:12.603Z,23.98
2023-04-18T05:38:44.445Z,24.08
2023-04-18T05:39:16.727Z,21.35
2023-04-18T05:39:49.554Z,22.48
2023-04-18T05:40:21.492Z,22.13
2023-04-18T05:40:55.460Z,21.80
2023-04-18T05:41:28.253Z,25.02
2023-04-18T05:42:00.664Z,23.90
2023-04-18T05:42:33.926Z,24.00
2023-04-18T05:43:06.728Z,22.98
2023-04-18T05:43:39.020Z,22.23
2023-04-18T05:44:10.921Z,23.50
2023-04-18T05:44:43.732Z,21.45
2023-04-18T05:45:15.700Z,24.83
2023-04-18T05:45:48.121Z,23.05
2023-04-18T05:46:21.053Z,22.30
2023-04-18T05:46:52.921Z,24.13
2023-04-18T05:47:28.431Z,22.88
2023-04-18T05:48:01.580Z,21.20
2023-04-18T05:48:33.461Z,25.00
2023-04-18T05:49:05.252Z,23.02
2023-04-18T05:49:38.005Z,24.17
2023-04-18T05:50:10.353Z,22.98
2023-04-18T05:50:42.251Z,21.85
2023-04-18T05:51:15.094Z,23.65
2023-04-18T05:51:49.658Z,23.55
2023-04-18T05:52:21.698Z,22.65
2023-04-18T05:52:54.483Z,23.73
2023-04-18T05:53:26.398Z,21.98
2023-04-18T05:53:58.189Z,22.77
2023-04-18T05:54:31.048Z,22.13
2023-04-18T05:55:02.974Z,22.48
2023-04-18T05:55:35.800Z,23.23
2023-04-18T05:56:07.672Z,22.77
2023-04-18T05:56:40.373Z,24.63
2023-04-18T05:57:13.188Z,23.52
2023-04-18T05:57:46.349Z,23.73
2023-04-18T05:58:18.259Z,23.25
2023-04-18T05:58:51.324Z,22.77
2023-04-18T05:59:23.184Z,22.65
2023-04-18T05:59:56.079Z,23.35
2023-04-18T06:00:28.014Z,21.42
2023-04-18T06:00:59.826Z,22.63
2023-04-18T06:01:33.430Z,22.42
2023-04-18T06:02:05.548Z,22.80
2023-04-18T06:02:37.475Z,22.95
2023-04-18T06:03:11.325Z,23.45
2023-04-18T06:03:43.789Z,24.30
2023-04-18T06:04:16.230Z,22.80
2023-04-18T06:04:49.810Z,22.25
2023-04-18T06:05:22.019Z,22.73
2023-04-18T06:05:55.124Z,20.77
2023-04-18T06:06:27.535Z,23.20
2023-04-18T06:06:59.436Z,23.08
2023-04-18T06:07:32.324Z,22.77
2023-04-18T06:08:04.203Z,22.98
2023-04-18T06:08:37.016Z,21.85
2023-04-18T06:09:08.851Z,22.85
2023-04-18T06:09:40.682Z,23.08
2023-04-18T06:10:13.636Z,23.40
2023-04-18T06:10:45.532Z,23.85
2023-04-18T06:11:19.990Z,23.20
2023-04-18T06:11:52.867Z,21.98
2023-04-18T06:12:24.735Z,22.58
2023-04-18T06:12:57.898Z,24.15
2023-04-18T06:13:30.686Z,23.83
2023-04-18T06:14:03.034Z,23.80
2023-04-18T06:14:34.893Z,22.27
2023-04-18T06:15:09.439Z,23.65
2023-04-18T06:15:41.339Z,22.95
2023-04-18T06:16:14.444Z,23.17
2023-04-18T06:16:46.275Z,24.48
2023-04-18T06:17:18.160Z,23.38
2023-04-18T06:17:51.508Z,21.05
2023-04-18T06:18:23.398Z,23.10
2023-04-18T06:18:55.247Z,22.75
2023-04-18T06:19:28.075Z,21.85
2023-04-18T06:19:59.919Z,22.88
2023-04-18T06:20:31.745Z,23.13
2023-04-18T06:21:04.640Z,22.88
2023-04-18T06:21:36.476Z,23.15
2023-04-18T06:22:09.230Z,22.60
2023-04-18T06:22:41.052Z,22.70
2023-04-18T06:23:13.868Z,22.27
2023-04-18T06:23:45.659Z,22.15
2023-04-18T06:24:17.597Z,22.60
2023-04-18T06:24:50.455Z,22.90
2023-04-18T06:25:22.346Z,22.95
2023-04-18T06:25:54.308Z,23.02
2023-04-18T06:26:27.074Z,24.27
2023-04-18T06:26:59.059Z,24.13
2023-04-18T06:27:31.791Z,23.17
2023-04-18T06:28:06.548Z,21.50
2023-04-18T06:28:38.359Z,22.27
2023-04-18T06:29:10.383Z,21.50
2023-04-18T06:29:44.087Z,22.60
2023-04-18T06:30:16.116Z,22.13
2023-04-18T06:30:49.011Z,21.85
2023-04-18T06:31:21.188Z,22.00
2023-04-18T06:31:54.097Z,20.65
2023-04-18T06:32:26.145Z,22.65
2023-04-18T06:32:59.031Z,23.60
2023-04-18T06:33:31.033Z,21.15
2023-04-18T06:34:03.039Z,20.83
2023-04-18T06:34:38.088Z,20.55
2023-04-18T06:35:10.339Z,20.45
2023-04-18T06:35:43.390Z,19.45
2023-04-18T06:36:15.507Z,19.98
2023-04-18T06:36:49.260Z,20.50
2023-04-18T06:37:21.148Z,19.27
2023-04-18T06:37:52.962Z,19.52
2023-04-18T06:38:26.098Z,19.88
2023-04-18T06:38:57.968Z,20.85
2023-04-18T06:39:31.007Z,20.13
2023-04-18T06:40:02.962Z,19.45
2023-04-18T06:40:35.016Z,20.20
2023-04-18T06:41:07.775Z,20.55
2023-04-18T06:41:39.612Z,19.40
2023-04-18T06:42:11.473Z,20.77
2023-04-18T06:42:44.489Z,20.42
2023-04-18T06:43:17.629Z,21.55
2023-04-18T06:44:02.119Z,20.67
2023-04-18T06:44:36.615Z,19.35
2023-04-18T06:45:10.669Z,19.63
2023-04-18T06:45:42.556Z,19.95
2023-04-18T06:46:15.996Z,21.23
2023-04-18T06:46:48.618Z,21.33
2023-04-18T06:47:20.533Z,19.15
2023-04-18T06:47:53.376Z,19.83
2023-04-18T06:48:25.279Z,19.48
2023-04-18T06:48:58.091Z,19.55
2023-04-18T06:49:30.024Z,22.48
2023-04-18T06:50:02.854Z,20.67
2023-04-18T06:50:34.733Z,20.40
2023-04-18T06:51:06.654Z,19.75
2023-04-18T06:51:39.409Z,21.00
2023-04-18T06:52:11.383Z,19.88
2023-04-18T06:52:45.526Z,18.98
2023-04-18T06:53:17.415Z,21.13
2023-04-18T06:53:52.504Z,20.33
2023-04-18T06:54:25.486Z,18.70
2023-04-18T06:54:57.322Z,18.13
2023-04-18T06:55:30.647Z,19.90
2023-04-18T06:56:02.614Z,19.10
2023-04-18T06:56:36.384Z,19.75
2023-04-18T06:57:09.728Z,19.10
2023-04-18T06:57:42.432Z,18.83
2023-04-18T06:58:16.668Z,18.20
2023-04-18T06:58:51.569Z,18.70
2023-04-18T06:59:24.334Z,19.40
2023-04-18T06:59:56.172Z,18.60
2023-04-18T07:00:29.067Z,18.42